sensor_id;sensor_type;location;lat;lon;timestamp;temperature;humidity
44607;DHT22;30315;46.072;14.474;2023-05-07T00:01:35;20.20;67.80
44607;DHT22;30315;46.072;14.474;2023-05-07T00:04:02;20.20;67.90
44607;DHT22;30315;46.072;14.474;2023-05-07T00:06:32;20.30;68.00
44607;DHT22;30315;46.072;14.474;2023-05-07T00:08:59;20.20;67.80
44607;DHT22;30315;46.072;14.474;2023-05-07T00:11:28;20.20;67.90
44607;DHT22;30315;46.072;14.474;2023-05-07T00:13:55;20.10;67.90
44607;DHT22;30315;46.072;14.474;2023-05-07T00:16:22;20.10;67.90
44607;DHT22;30315;46.072;14.474;2023-05-07T00:18:49;20.10;68.00
44607;DHT22;30315;46.072;14.474;2023-05-07T00:21:16;20.00;68.20
44607;DHT22;30315;46.072;14.474;2023-05-07T00:23:43;20.00;68.10
44607;DHT22;30315;46.072;14.474;2023-05-07T00:26:10;20.00;68.40
44607;DHT22;30315;46.072;14.474;2023-05-07T00:28:38;20.00;68.50
44607;DHT22;30315;46.072;14.474;2023-05-07T00:31:06;20.00;68.40
44607;DHT22;30315;46.072;14.474;2023-05-07T00:33:33;19.90;68.30
44607;DHT22;30315;46.072;14.474;2023-05-07T00:36:00;19.90;68.50
44607;DHT22;30315;46.072;14.474;2023-05-07T00:38:28;19.90;68.80
44607;DHT22;30315;46.072;14.474;2023-05-07T00:40:55;19.80;68.80
44607;DHT22;30315;46.072;14.474;2023-05-07T00:43:22;19.80;68.80
44607;DHT22;30315;46.072;14.474;2023-05-07T00:45:49;19.80;68.60
44607;DHT22;30315;46.072;14.474;2023-05-07T00:48:16;19.80;68.70
44607;DHT22;30315;46.072;14.474;2023-05-07T00:50:44;19.80;68.70
44607;DHT22;30315;46.072;14.474;2023-05-07T00:53:12;19.80;68.80
44607;DHT22;30315;46.072;14.474;2023-05-07T00:55:39;19.80;68.80
44607;DHT22;30315;46.072;14.474;2023-05-07T00:58:07;19.70;68.60
44607;DHT22;30315;46.072;14.474;2023-05-07T01:00:34;19.70;68.40
44607;DHT22;30315;46.072;14.474;2023-05-07T01:03:02;19.60;68.50
44607;DHT22;30315;46.072;14.474;2023-05-07T01:05:30;19.50;68.70
44607;DHT22;30315;46.072;14.474;2023-05-07T01:07:58;19.50;68.80
44607;DHT22;30315;46.072;14.474;2023-05-07T01:10:26;19.50;69.00
44607;DHT22;30315;46.072;14.474;2023-05-07T01:12:54;19.50;69.00
44607;DHT22;30315;46.072;14.474;2023-05-07T01:15:21;19.40;69.00
44607;DHT22;30315;46.072;14.474;2023-05-07T01:17:48;19.40;69.10
44607;DHT22;30315;46.072;14.474;2023-05-07T01:20:26;19.40;69.10
44607;DHT22;30315;46.072;14.474;2023-05-07T01:22:55;19.30;68.90
44607;DHT22;30315;46.072;14.474;2023-05-07T01:25:23;19.30;68.70
44607;DHT22;30315;46.072;14.474;2023-05-07T01:27:53;19.20;68.90
44607;DHT22;30315;46.072;14.474;2023-05-07T01:30:25;19.20;68.90
44607;DHT22;30315;46.072;14.474;2023-05-07T01:32:58;19.10;68.40
44607;DHT22;30315;46.072;14.474;2023-05-07T01:35:30;19.10;68.70
44607;DHT22;30315;46.072;14.474;2023-05-07T01:37:59;19.10;69.90
44607;DHT22;30315;46.072;14.474;2023-05-07T01:40:27;19.00;69.30
44607;DHT22;30315;46.072;14.474;2023-05-07T01:42:54;19.00;69.20
44607;DHT22;30315;46.072;14.474;2023-05-07T01:45:22;19.00;69.10
44607;DHT22;30315;46.072;14.474;2023-05-07T01:47:50;19.00;69.30
44607;DHT22;30315;46.072;14.474;2023-05-07T01:50:19;18.90;69.20
44607;DHT22;30315;46.072;14.474;2023-05-07T01:52:47;18.90;69.30
44607;DHT22;30315;46.072;14.474;2023-05-07T01:55:16;18.90;69.90
44607;DHT22;30315;46.072;14.474;2023-05-07T01:57:43;18.90;69.10
44607;DHT22;30315;46.072;14.474;2023-05-07T02:00:11;18.80;69.30
44607;DHT22;30315;46.072;14.474;2023-05-07T02:02:41;18.80;69.30
44607;DHT22;30315;46.072;14.474;2023-05-07T02:05:19;18.80;69.20
44607;DHT22;30315;46.072;14.474;2023-05-07T02:07:54;18.80;69.20
44607;DHT22;30315;46.072;14.474;2023-05-07T02:10:23;18.80;69.10
44607;DHT22;30315;46.072;14.474;2023-05-07T02:12:51;18.80;69.10
44607;DHT22;30315;46.072;14.474;2023-05-07T02:15:18;18.70;69.20
44607;DHT22;30315;46.072;14.474;2023-05-07T02:17:59;18.70;69.10
44607;DHT22;30315;46.072;14.474;2023-05-07T02:23:12;18.70;69.10
44607;DHT22;30315;46.072;14.474;2023-05-07T02:25:39;18.70;69.10
44607;DHT22;30315;46.072;14.474;2023-05-07T02:28:06;18.60;69.00
44607;DHT22;30315;46.072;14.474;2023-05-07T02:30:43;18.50;68.70
44607;DHT22;30315;46.072;14.474;2023-05-07T02:33:11;18.50;69.00
44607;DHT22;30315;46.072;14.474;2023-05-07T02:35:40;18.50;69.00
44607;DHT22;30315;46.072;14.474;2023-05-07T02:38:07;18.40;69.10
44607;DHT22;30315;46.072;14.474;2023-05-07T02:40:38;18.40;69.20
44607;DHT22;30315;46.072;14.474;2023-05-07T02:43:06;18.40;69.30
44607;DHT22;30315;46.072;14.474;2023-05-07T02:45:33;18.30;69.10
44607;DHT22;30315;46.072;14.474;2023-05-07T02:48:03;18.30;69.20
44607;DHT22;30315;46.072;14.474;2023-05-07T02:50:30;18.20;69.20
44607;DHT22;30315;46.072;14.474;2023-05-07T02:52:57;18.20;69.50
44607;DHT22;30315;46.072;14.474;2023-05-07T02:55:24;18.20;69.60
44607;DHT22;30315;46.072;14.474;2023-05-07T02:57:51;18.20;69.50
44607;DHT22;30315;46.072;14.474;2023-05-07T03:00:20;18.20;69.20
44607;DHT22;30315;46.072;14.474;2023-05-07T03:03:00;18.20;69.60
44607;DHT22;30315;46.072;14.474;2023-05-07T03:05:27;18.10;69.30
44607;DHT22;30315;46.072;14.474;2023-05-07T03:07:54;18.10;69.50
44607;DHT22;30315;46.072;14.474;2023-05-07T03:10:21;18.00;69.40
44607;DHT22;30315;46.072;14.474;2023-05-07T03:12:47;18.00;69.50
44607;DHT22;30315;46.072;14.474;2023-05-07T03:15:16;18.00;69.50
44607;DHT22;30315;46.072;14.474;2023-05-07T03:17:43;18.00;69.80
44607;DHT22;30315;46.072;14.474;2023-05-07T03:20:10;17.90;69.70
44607;DHT22;30315;46.072;14.474;2023-05-07T03:22:40;17.90;70.00
44607;DHT22;30315;46.072;14.474;2023-05-07T03:25:08;18.00;70.10
44607;DHT22;30315;46.072;14.474;2023-05-07T03:27:36;17.90;69.80
44607;DHT22;30315;46.072;14.474;2023-05-07T03:30:04;17.80;69.50
44607;DHT22;30315;46.072;14.474;2023-05-07T03:32:31;17.90;69.30
44607;DHT22;30315;46.072;14.474;2023-05-07T03:34:58;17.90;69.70
44607;DHT22;30315;46.072;14.474;2023-05-07T03:37:25;17.80;69.50
44607;DHT22;30315;46.072;14.474;2023-05-07T03:39:53;17.80;69.50
44607;DHT22;30315;46.072;14.474;2023-05-07T03:42:20;17.80;69.50
44607;DHT22;30315;46.072;14.474;2023-05-07T03:44:49;17.70;69.50
44607;DHT22;30315;46.072;14.474;2023-05-07T03:47:17;17.70;69.50
44607;DHT22;30315;46.072;14.474;2023-05-07T03:49:45;17.60;69.50
44607;DHT22;30315;46.072;14.474;2023-05-07T03:52:13;17.60;69.60
44607;DHT22;30315;46.072;14.474;2023-05-07T03:54:41;17.60;70.10
44607;DHT22;30315;46.072;14.474;2023-05-07T03:57:13;17.60;70.30
44607;DHT22;30315;46.072;14.474;2023-05-07T03:59:40;17.60;70.30
44607;DHT22;30315;46.072;14.474;2023-05-07T04:02:08;17.60;70.30
44607;DHT22;30315;46.072;14.474;2023-05-07T04:04:35;17.60;70.40
44607;DHT22;30315;46.072;14.474;2023-05-07T04:07:02;17.50;70.40
44607;DHT22;30315;46.072;14.474;2023-05-07T04:09:33;17.60;70.10
44607;DHT22;30315;46.072;14.474;2023-05-07T04:11:59;17.60;70.20
44607;DHT22;30315;46.072;14.474;2023-05-07T04:14:29;17.60;70.20
44607;DHT22;30315;46.072;14.474;2023-05-07T04:16:59;17.50;70.10
44607;DHT22;30315;46.072;14.474;2023-05-07T04:19:27;17.50;70.10
44607;DHT22;30315;46.072;14.474;2023-05-07T04:21:54;17.50;70.20
44607;DHT22;30315;46.072;14.474;2023-05-07T04:24:22;17.50;70.40
44607;DHT22;30315;46.072;14.474;2023-05-07T04:26:49;17.40;70.40
44607;DHT22;30315;46.072;14.474;2023-05-07T04:29:20;17.50;70.90
44607;DHT22;30315;46.072;14.474;2023-05-07T04:31:47;17.50;70.90
44607;DHT22;30315;46.072;14.474;2023-05-07T04:34:15;17.50;71.70
44607;DHT22;30315;46.072;14.474;2023-05-07T04:36:42;17.50;71.00
44607;DHT22;30315;46.072;14.474;2023-05-07T04:39:11;17.50;71.10
44607;DHT22;30315;46.072;14.474;2023-05-07T04:41:42;17.60;71.30
44607;DHT22;30315;46.072;14.474;2023-05-07T04:44:09;17.50;70.90
44607;DHT22;30315;46.072;14.474;2023-05-07T04:46:37;17.60;71.00
44607;DHT22;30315;46.072;14.474;2023-05-07T04:49:04;17.60;71.20
44607;DHT22;30315;46.072;14.474;2023-05-07T04:51:32;17.60;71.40
44607;DHT22;30315;46.072;14.474;2023-05-07T04:53:59;17.60;71.60
44607;DHT22;30315;46.072;14.474;2023-05-07T04:56:29;17.60;71.60
44607;DHT22;30315;46.072;14.474;2023-05-07T04:59:00;17.70;72.00
44607;DHT22;30315;46.072;14.474;2023-05-07T05:01:28;17.70;72.10
44607;DHT22;30315;46.072;14.474;2023-05-07T05:03:55;17.70;72.20
44607;DHT22;30315;46.072;14.474;2023-05-07T05:06:23;17.70;72.30
44607;DHT22;30315;46.072;14.474;2023-05-07T05:08:51;17.80;72.40
44607;DHT22;30315;46.072;14.474;2023-05-07T05:11:18;17.80;72.40
44607;DHT22;30315;46.072;14.474;2023-05-07T05:13:45;17.80;72.40
44607;DHT22;30315;46.072;14.474;2023-05-07T05:16:18;17.80;72.40
44607;DHT22;30315;46.072;14.474;2023-05-07T05:18:47;17.90;72.50
44607;DHT22;30315;46.072;14.474;2023-05-07T05:21:17;17.80;72.40
44607;DHT22;30315;46.072;14.474;2023-05-07T05:23:46;17.90;72.60
44607;DHT22;30315;46.072;14.474;2023-05-07T05:26:18;17.90;72.40
44607;DHT22;30315;46.072;14.474;2023-05-07T05:28:45;17.90;72.50
44607;DHT22;30315;46.072;14.474;2023-05-07T05:31:13;17.90;72.70
44607;DHT22;30315;46.072;14.474;2023-05-07T05:33:41;18.00;72.70
44607;DHT22;30315;46.072;14.474;2023-05-07T05:36:11;18.00;72.70
44607;DHT22;30315;46.072;14.474;2023-05-07T05:38:41;18.00;72.80
44607;DHT22;30315;46.072;14.474;2023-05-07T05:41:10;18.00;72.80
44607;DHT22;30315;46.072;14.474;2023-05-07T05:43:37;18.00;72.70
44607;DHT22;30315;46.072;14.474;2023-05-07T05:46:04;18.00;72.80
44607;DHT22;30315;46.072;14.474;2023-05-07T05:48:31;18.10;72.80
44607;DHT22;30315;46.072;14.474;2023-05-07T05:51:00;18.20;72.80
44607;DHT22;30315;46.072;14.474;2023-05-07T05:53:28;18.10;72.60
44607;DHT22;30315;46.072;14.474;2023-05-07T05:55:55;18.20;72.30
44607;DHT22;30315;46.072;14.474;2023-05-07T05:58:22;18.20;73.10
44607;DHT22;30315;46.072;14.474;2023-05-07T06:00:55;18.20;72.50
44607;DHT22;30315;46.072;14.474;2023-05-07T06:03:25;18.30;72.60
44607;DHT22;30315;46.072;14.474;2023-05-07T06:05:54;18.30;72.60
44607;DHT22;30315;46.072;14.474;2023-05-07T06:08:21;18.30;72.60
44607;DHT22;30315;46.072;14.474;2023-05-07T06:10:49;18.30;72.60
44607;DHT22;30315;46.072;14.474;2023-05-07T06:13:16;18.40;72.90
44607;DHT22;30315;46.072;14.474;2023-05-07T06:15:43;18.40;73.10
44607;DHT22;30315;46.072;14.474;2023-05-07T06:18:12;18.50;73.20
44607;DHT22;30315;46.072;14.474;2023-05-07T06:20:40;18.50;72.90
44607;DHT22;30315;46.072;14.474;2023-05-07T06:23:14;18.50;73.00
44607;DHT22;30315;46.072;14.474;2023-05-07T06:25:49;18.60;72.90
44607;DHT22;30315;46.072;14.474;2023-05-07T06:28:19;18.60;72.80
44607;DHT22;30315;46.072;14.474;2023-05-07T06:30:47;18.60;72.80
44607;DHT22;30315;46.072;14.474;2023-05-07T06:33:16;18.70;72.80
44607;DHT22;30315;46.072;14.474;2023-05-07T06:35:43;18.70;72.60
44607;DHT22;30315;46.072;14.474;2023-05-07T06:38:10;18.80;73.00
44607;DHT22;30315;46.072;14.474;2023-05-07T06:40:39;18.80;73.00
44607;DHT22;30315;46.072;14.474;2023-05-07T06:43:06;18.90;72.60
44607;DHT22;30315;46.072;14.474;2023-05-07T06:45:53;18.90;72.60
44607;DHT22;30315;46.072;14.474;2023-05-07T06:48:20;18.90;72.70
44607;DHT22;30315;46.072;14.474;2023-05-07T06:51:00;18.90;72.80
44607;DHT22;30315;46.072;14.474;2023-05-07T06:53:30;19.00;72.90
44607;DHT22;30315;46.072;14.474;2023-05-07T06:55:59;19.00;72.90
44607;DHT22;30315;46.072;14.474;2023-05-07T06:58:26;19.10;73.00
44607;DHT22;30315;46.072;14.474;2023-05-07T07:00:53;19.10;73.00
44607;DHT22;30315;46.072;14.474;2023-05-07T07:03:21;19.10;73.10
44607;DHT22;30315;46.072;14.474;2023-05-07T07:05:51;19.10;73.20
44607;DHT22;30315;46.072;14.474;2023-05-07T07:08:19;19.20;72.50
44607;DHT22;30315;46.072;14.474;2023-05-07T07:10:48;19.20;72.60
44607;DHT22;30315;46.072;14.474;2023-05-07T07:13:15;19.20;72.50
44607;DHT22;30315;46.072;14.474;2023-05-07T07:15:43;19.30;72.10
44607;DHT22;30315;46.072;14.474;2023-05-07T07:18:10;19.40;72.20
44607;DHT22;30315;46.072;14.474;2023-05-07T07:20:38;19.50;72.40
44607;DHT22;30315;46.072;14.474;2023-05-07T07:23:07;19.50;72.00
44607;DHT22;30315;46.072;14.474;2023-05-07T07:25:34;19.50;71.40
44607;DHT22;30315;46.072;14.474;2023-05-07T07:28:01;19.60;71.40
44607;DHT22;30315;46.072;14.474;2023-05-07T07:30:28;19.60;71.00
44607;DHT22;30315;46.072;14.474;2023-05-07T07:32:56;19.70;71.00
44607;DHT22;30315;46.072;14.474;2023-05-07T07:35:32;19.80;70.60
44607;DHT22;30315;46.072;14.474;2023-05-07T07:38:00;19.80;70.50
44607;DHT22;30315;46.072;14.474;2023-05-07T07:40:28;19.80;70.40
44607;DHT22;30315;46.072;14.474;2023-05-07T07:42:56;19.90;70.00
44607;DHT22;30315;46.072;14.474;2023-05-07T07:45:23;19.90;69.90
44607;DHT22;30315;46.072;14.474;2023-05-07T07:47:51;20.00;70.10
44607;DHT22;30315;46.072;14.474;2023-05-07T07:50:18;20.10;70.20
44607;DHT22;30315;46.072;14.474;2023-05-07T07:53:06;20.20;70.30
44607;DHT22;30315;46.072;14.474;2023-05-07T07:55:40;20.20;70.30
44607;DHT22;30315;46.072;14.474;2023-05-07T07:58:10;20.30;70.30
44607;DHT22;30315;46.072;14.474;2023-05-07T08:00:37;20.40;70.10
44607;DHT22;30315;46.072;14.474;2023-05-07T08:03:04;20.30;69.50
44607;DHT22;30315;46.072;14.474;2023-05-07T08:05:36;20.50;69.70
44607;DHT22;30315;46.072;14.474;2023-05-07T08:08:04;20.60;69.50
44607;DHT22;30315;46.072;14.474;2023-05-07T08:10:34;20.70;69.70
44607;DHT22;30315;46.072;14.474;2023-05-07T08:13:07;20.70;69.60
44607;DHT22;30315;46.072;14.474;2023-05-07T08:15:37;20.80;69.40
44607;DHT22;30315;46.072;14.474;2023-05-07T08:18:04;20.90;69.10
44607;DHT22;30315;46.072;14.474;2023-05-07T08:20:33;21.00;68.60
44607;DHT22;30315;46.072;14.474;2023-05-07T08:23:03;21.00;68.00
44607;DHT22;30315;46.072;14.474;2023-05-07T08:25:30;21.00;67.80
44607;DHT22;30315;46.072;14.474;2023-05-07T08:27:57;21.10;67.90
44607;DHT22;30315;46.072;14.474;2023-05-07T08:30:24;21.20;67.60
44607;DHT22;30315;46.072;14.474;2023-05-07T08:32:52;21.20;67.20
44607;DHT22;30315;46.072;14.474;2023-05-07T08:35:20;21.20;66.60
44607;DHT22;30315;46.072;14.474;2023-05-07T08:37:47;21.30;66.90
44607;DHT22;30315;46.072;14.474;2023-05-07T08:40:16;21.30;66.70
44607;DHT22;30315;46.072;14.474;2023-05-07T08:42:44;21.40;66.80
44607;DHT22;30315;46.072;14.474;2023-05-07T08:45:12;21.50;67.10
44607;DHT22;30315;46.072;14.474;2023-05-07T08:47:44;21.50;66.70
44607;DHT22;30315;46.072;14.474;2023-05-07T08:50:15;21.70;66.30
44607;DHT22;30315;46.072;14.474;2023-05-07T08:52:43;21.70;65.50
44607;DHT22;30315;46.072;14.474;2023-05-07T08:55:12;21.70;65.20
44607;DHT22;30315;46.072;14.474;2023-05-07T08:57:40;21.70;65.30
44607;DHT22;30315;46.072;14.474;2023-05-07T09:00:10;21.80;65.00
44607;DHT22;30315;46.072;14.474;2023-05-07T09:02:39;21.80;64.10
44607;DHT22;30315;46.072;14.474;2023-05-07T09:05:08;21.80;64.40
44607;DHT22;30315;46.072;14.474;2023-05-07T09:07:37;21.90;64.20
44607;DHT22;30315;46.072;14.474;2023-05-07T09:10:06;22.00;64.10
44607;DHT22;30315;46.072;14.474;2023-05-07T09:12:35;22.00;64.60
44607;DHT22;30315;46.072;14.474;2023-05-07T09:15:05;22.10;64.70
44607;DHT22;30315;46.072;14.474;2023-05-07T09:17:34;22.10;64.20
44607;DHT22;30315;46.072;14.474;2023-05-07T09:20:03;22.10;63.10
44607;DHT22;30315;46.072;14.474;2023-05-07T09:22:35;22.20;63.10
44607;DHT22;30315;46.072;14.474;2023-05-07T09:25:06;22.40;63.30
44607;DHT22;30315;46.072;14.474;2023-05-07T09:27:35;22.30;63.30
44607;DHT22;30315;46.072;14.474;2023-05-07T09:30:04;22.50;63.10
44607;DHT22;30315;46.072;14.474;2023-05-07T09:32:37;22.50;62.60
44607;DHT22;30315;46.072;14.474;2023-05-07T09:35:17;22.50;62.50
44607;DHT22;30315;46.072;14.474;2023-05-07T09:37:50;22.60;62.30
44607;DHT22;30315;46.072;14.474;2023-05-07T09:40:28;22.70;61.90
44607;DHT22;30315;46.072;14.474;2023-05-07T09:43:09;22.80;61.70
44607;DHT22;30315;46.072;14.474;2023-05-07T09:45:41;22.90;61.70
44607;DHT22;30315;46.072;14.474;2023-05-07T09:48:10;23.00;61.30
44607;DHT22;30315;46.072;14.474;2023-05-07T09:50:49;23.10;61.00
44607;DHT22;30315;46.072;14.474;2023-05-07T09:53:22;23.20;61.50
44607;DHT22;30315;46.072;14.474;2023-05-07T09:55:51;23.30;62.00
44607;DHT22;30315;46.072;14.474;2023-05-07T09:58:21;23.50;61.80
44607;DHT22;30315;46.072;14.474;2023-05-07T10:00:50;23.60;61.20
44607;DHT22;30315;46.072;14.474;2023-05-07T10:03:19;23.80;61.00
44607;DHT22;30315;46.072;14.474;2023-05-07T10:05:54;23.90;60.20
44607;DHT22;30315;46.072;14.474;2023-05-07T10:08:22;24.00;60.00
44607;DHT22;30315;46.072;14.474;2023-05-07T10:10:53;24.10;60.20
44607;DHT22;30315;46.072;14.474;2023-05-07T10:13:24;24.20;60.40
44607;DHT22;30315;46.072;14.474;2023-05-07T10:15:55;24.40;60.20
44607;DHT22;30315;46.072;14.474;2023-05-07T10:18:26;24.50;59.30
44607;DHT22;30315;46.072;14.474;2023-05-07T10:21:17;24.60;58.60
44607;DHT22;30315;46.072;14.474;2023-05-07T10:23:51;24.70;58.30
44607;DHT22;30315;46.072;14.474;2023-05-07T10:26:22;24.70;57.60
44607;DHT22;30315;46.072;14.474;2023-05-07T10:29:02;24.80;57.40
44607;DHT22;30315;46.072;14.474;2023-05-07T10:34:15;25.00;57.90
44607;DHT22;30315;46.072;14.474;2023-05-07T10:36:44;25.10;57.20
44607;DHT22;30315;46.072;14.474;2023-05-07T10:39:12;25.30;57.10
44607;DHT22;30315;46.072;14.474;2023-05-07T10:41:41;25.40;57.00
44607;DHT22;30315;46.072;14.474;2023-05-07T10:44:09;25.50;55.20
44607;DHT22;30315;46.072;14.474;2023-05-07T10:46:37;25.60;55.00
44607;DHT22;30315;46.072;14.474;2023-05-07T10:49:19;25.60;55.40
44607;DHT22;30315;46.072;14.474;2023-05-07T10:57:44;25.80;55.20
44607;DHT22;30315;46.072;14.474;2023-05-07T11:00:40;25.90;54.60
44607;DHT22;30315;46.072;14.474;2023-05-07T11:03:13;25.80;53.00
44607;DHT22;30315;46.072;14.474;2023-05-07T11:06:12;25.80;52.90
44607;DHT22;30315;46.072;14.474;2023-05-07T11:08:56;25.80;52.90
44607;DHT22;30315;46.072;14.474;2023-05-07T11:11:50;25.50;52.80
44607;DHT22;30315;46.072;14.474;2023-05-07T11:14:52;25.90;54.20
44607;DHT22;30315;46.072;14.474;2023-05-07T11:17:29;26.10;55.20
44607;DHT22;30315;46.072;14.474;2023-05-07T11:20:07;26.30;55.60
44607;DHT22;30315;46.072;14.474;2023-05-07T11:22:48;26.40;54.10
44607;DHT22;30315;46.072;14.474;2023-05-07T11:25:25;26.50;53.20
44607;DHT22;30315;46.072;14.474;2023-05-07T11:28:07;26.60;52.90
44607;DHT22;30315;46.072;14.474;2023-05-07T11:30:44;26.80;53.50
44607;DHT22;30315;46.072;14.474;2023-05-07T11:33:17;27.00;54.50
44607;DHT22;30315;46.072;14.474;2023-05-07T11:35:47;27.20;54.40
44607;DHT22;30315;46.072;14.474;2023-05-07T11:38:18;27.40;53.60
44607;DHT22;30315;46.072;14.474;2023-05-07T11:40:50;27.50;52.60
44607;DHT22;30315;46.072;14.474;2023-05-07T11:43:19;27.60;52.50
44607;DHT22;30315;46.072;14.474;2023-05-07T11:45:47;27.70;51.70
44607;DHT22;30315;46.072;14.474;2023-05-07T11:48:16;27.80;51.50
44607;DHT22;30315;46.072;14.474;2023-05-07T11:50:59;27.80;49.60
44607;DHT22;30315;46.072;14.474;2023-05-07T11:53:27;27.90;49.30
44607;DHT22;30315;46.072;14.474;2023-05-07T11:55:55;27.90;49.00
44607;DHT22;30315;46.072;14.474;2023-05-07T11:58:24;28.00;48.50
44607;DHT22;30315;46.072;14.474;2023-05-07T12:00:53;28.00;48.20
44607;DHT22;30315;46.072;14.474;2023-05-07T12:03:21;28.10;48.90
44607;DHT22;30315;46.072;14.474;2023-05-07T12:05:49;28.20;49.70
44607;DHT22;30315;46.072;14.474;2023-05-07T12:08:18;28.30;49.60
44607;DHT22;30315;46.072;14.474;2023-05-07T12:10:47;28.50;49.40
44607;DHT22;30315;46.072;14.474;2023-05-07T12:13:22;28.50;48.40
44607;DHT22;30315;46.072;14.474;2023-05-07T12:15:55;28.60;48.90
44607;DHT22;30315;46.072;14.474;2023-05-07T12:18:23;28.70;47.50
44607;DHT22;30315;46.072;14.474;2023-05-07T12:20:51;28.90;47.60
44607;DHT22;30315;46.072;14.474;2023-05-07T12:23:18;29.00;46.70
44607;DHT22;30315;46.072;14.474;2023-05-07T12:25:46;29.10;46.50
44607;DHT22;30315;46.072;14.474;2023-05-07T12:28:15;29.30;46.20
44607;DHT22;30315;46.072;14.474;2023-05-07T12:30:44;29.40;46.30
44607;DHT22;30315;46.072;14.474;2023-05-07T12:33:12;29.50;46.20
44607;DHT22;30315;46.072;14.474;2023-05-07T12:35:43;29.60;45.80
44607;DHT22;30315;46.072;14.474;2023-05-07T12:38:16;29.60;44.80
44607;DHT22;30315;46.072;14.474;2023-05-07T12:40:46;29.70;44.70
44607;DHT22;30315;46.072;14.474;2023-05-07T12:43:19;29.90;44.70
44607;DHT22;30315;46.072;14.474;2023-05-07T12:45:48;29.90;44.90
44607;DHT22;30315;46.072;14.474;2023-05-07T12:48:16;30.00;45.30
44607;DHT22;30315;46.072;14.474;2023-05-07T12:50:43;30.10;44.50
44607;DHT22;30315;46.072;14.474;2023-05-07T12:53:11;30.20;44.50
44607;DHT22;30315;46.072;14.474;2023-05-07T12:55:44;30.30;45.00
44607;DHT22;30315;46.072;14.474;2023-05-07T12:58:23;30.40;44.50
44607;DHT22;30315;46.072;14.474;2023-05-07T13:00:52;30.40;44.00
44607;DHT22;30315;46.072;14.474;2023-05-07T13:05:59;30.30;42.60
44607;DHT22;30315;46.072;14.474;2023-05-07T13:08:28;30.30;43.10
44607;DHT22;30315;46.072;14.474;2023-05-07T13:10:59;30.30;43.20
44607;DHT22;30315;46.072;14.474;2023-05-07T13:13:31;30.30;43.40
44607;DHT22;30315;46.072;14.474;2023-05-07T13:16:05;30.20;43.20
44607;DHT22;30315;46.072;14.474;2023-05-07T13:18:33;30.20;43.10
44607;DHT22;30315;46.072;14.474;2023-05-07T13:21:01;30.20;43.60
44607;DHT22;30315;46.072;14.474;2023-05-07T13:23:28;30.10;43.70
44607;DHT22;30315;46.072;14.474;2023-05-07T13:25:56;30.10;43.70
44607;DHT22;30315;46.072;14.474;2023-05-07T13:28:24;30.10;44.80
44607;DHT22;30315;46.072;14.474;2023-05-07T13:30:52;30.00;46.00
44607;DHT22;30315;46.072;14.474;2023-05-07T13:33:19;30.00;46.70
44607;DHT22;30315;46.072;14.474;2023-05-07T13:35:46;29.90;47.00
44607;DHT22;30315;46.072;14.474;2023-05-07T13:38:13;29.90;47.90
44607;DHT22;30315;46.072;14.474;2023-05-07T13:40:42;29.70;47.50
44607;DHT22;30315;46.072;14.474;2023-05-07T13:43:12;29.50;47.80
44607;DHT22;30315;46.072;14.474;2023-05-07T13:45:39;29.30;48.40
44607;DHT22;30315;46.072;14.474;2023-05-07T13:48:10;29.30;48.90
44607;DHT22;30315;46.072;14.474;2023-05-07T13:50:39;29.20;49.30
44607;DHT22;30315;46.072;14.474;2023-05-07T13:53:07;29.20;49.30
44607;DHT22;30315;46.072;14.474;2023-05-07T13:55:35;29.10;49.50
44607;DHT22;30315;46.072;14.474;2023-05-07T13:58:02;29.10;50.10
44607;DHT22;30315;46.072;14.474;2023-05-07T14:00:33;29.00;49.80
44607;DHT22;30315;46.072;14.474;2023-05-07T14:03:00;29.00;49.70
44607;DHT22;30315;46.072;14.474;2023-05-07T14:05:27;29.00;49.80
44607;DHT22;30315;46.072;14.474;2023-05-07T14:07:56;29.00;50.20
44607;DHT22;30315;46.072;14.474;2023-05-07T14:10:24;29.00;49.30
44607;DHT22;30315;46.072;14.474;2023-05-07T14:12:51;29.10;48.90
44607;DHT22;30315;46.072;14.474;2023-05-07T14:15:19;29.20;48.10
44607;DHT22;30315;46.072;14.474;2023-05-07T14:17:47;29.20;47.70
44607;DHT22;30315;46.072;14.474;2023-05-07T14:20:14;29.50;48.10
44607;DHT22;30315;46.072;14.474;2023-05-07T14:22:41;29.40;47.80
44607;DHT22;30315;46.072;14.474;2023-05-07T14:25:09;29.50;47.40
44607;DHT22;30315;46.072;14.474;2023-05-07T14:27:37;29.40;47.40
44607;DHT22;30315;46.072;14.474;2023-05-07T14:30:05;29.50;47.80
44607;DHT22;30315;46.072;14.474;2023-05-07T14:32:32;29.50;47.80
44607;DHT22;30315;46.072;14.474;2023-05-07T14:35:00;29.50;48.20
44607;DHT22;30315;46.072;14.474;2023-05-07T14:37:27;29.40;48.60
44607;DHT22;30315;46.072;14.474;2023-05-07T14:39:54;29.40;49.20
44607;DHT22;30315;46.072;14.474;2023-05-07T14:42:21;29.30;50.10
44607;DHT22;30315;46.072;14.474;2023-05-07T14:44:48;29.30;50.30
44607;DHT22;30315;46.072;14.474;2023-05-07T14:47:15;29.20;50.10
44607;DHT22;30315;46.072;14.474;2023-05-07T14:49:45;29.10;50.40
44607;DHT22;30315;46.072;14.474;2023-05-07T14:52:14;29.10;50.60
44607;DHT22;30315;46.072;14.474;2023-05-07T14:54:42;29.00;50.90
44607;DHT22;30315;46.072;14.474;2023-05-07T14:57:10;29.00;51.00
44607;DHT22;30315;46.072;14.474;2023-05-07T14:59:40;28.90;51.20
44607;DHT22;30315;46.072;14.474;2023-05-07T15:02:09;28.90;51.30
44607;DHT22;30315;46.072;14.474;2023-05-07T15:04:37;28.90;51.00
44607;DHT22;30315;46.072;14.474;2023-05-07T15:07:05;28.90;50.20
44607;DHT22;30315;46.072;14.474;2023-05-07T15:09:32;29.00;49.40
44607;DHT22;30315;46.072;14.474;2023-05-07T15:11:59;29.00;49.40
44607;DHT22;30315;46.072;14.474;2023-05-07T15:14:26;29.10;49.10
44607;DHT22;30315;46.072;14.474;2023-05-07T15:16:54;29.20;48.00
44607;DHT22;30315;46.072;14.474;2023-05-07T15:19:21;29.30;47.60
44607;DHT22;30315;46.072;14.474;2023-05-07T15:21:49;29.40;48.00
44607;DHT22;30315;46.072;14.474;2023-05-07T15:24:16;29.60;48.30
44607;DHT22;30315;46.072;14.474;2023-05-07T15:26:43;29.70;47.60
44607;DHT22;30315;46.072;14.474;2023-05-07T15:29:10;29.70;47.30
44607;DHT22;30315;46.072;14.474;2023-05-07T15:31:37;29.70;46.90
44607;DHT22;30315;46.072;14.474;2023-05-07T15:34:06;29.60;46.90
44607;DHT22;30315;46.072;14.474;2023-05-07T15:36:33;29.40;47.10
44607;DHT22;30315;46.072;14.474;2023-05-07T15:39:00;29.20;47.20
44607;DHT22;30315;46.072;14.474;2023-05-07T15:41:32;29.10;47.20
44607;DHT22;30315;46.072;14.474;2023-05-07T15:43:59;29.00;47.50